Terminal Aerodrome Forecast
Issued by NWS

Home | Current Version | Previous Version | Text Only | Print | Product List | Glossary On
Versions: 1 2 3 4 5 6 7 8 9 10 11 12 13 14 15 16 17 18
000
FTUS46 KMTR 301729
TAFSNS
TAF
KSNS 301729Z 3018/3118 VRB03KT P6SM FEW010 FEW200
     FM301900 30010KT P6SM FEW010 FEW200
     FM302100 29015KT P6SM FEW250
     FM310200 30010KT P6SM OVC007
     FM311200 VRB03KT 6SM BR OVC004=

USA.gov is the U.S. government's official web portal to all federal, state and local government web resources and services.